createdAt,value
2022-10-23T00:01:48.271Z,100561.00
2022-10-23T00:04:19.402Z,100556.00
2022-10-23T00:06:47.749Z,100557.00
2022-10-23T00:09:18.127Z,100560.00
2022-10-23T00:11:48.183Z,100575.00
2022-10-23T00:14:17.354Z,100564.00
2022-10-23T00:16:45.637Z,100573.00
2022-10-23T00:19:13.691Z,100576.00
2022-10-23T00:21:41.870Z,100575.00
2022-10-23T00:26:43.042Z,100568.00
2022-10-23T00:29:11.543Z,100564.00
2022-10-23T00:31:39.711Z,100570.00
2022-10-23T00:34:08.735Z,100570.00
2022-10-23T00:36:37.523Z,100570.00
2022-10-23T00:39:05.790Z,100562.00
2022-10-23T00:41:33.710Z,100562.00
2022-10-23T00:44:11.778Z,100559.00
2022-10-23T00:46:40.549Z,100556.00
2022-10-23T00:49:09.009Z,100565.00
2022-10-23T00:51:49.127Z,100562.00
2022-10-23T00:54:24.055Z,100563.00
2022-10-23T00:56:55.329Z,100556.00
2022-10-23T00:59:23.199Z,100567.00
2022-10-23T01:01:51.250Z,100575.00
2022-10-23T01:04:19.520Z,100571.00
2022-10-23T01:06:59.588Z,100567.00
2022-10-23T01:09:34.989Z,100558.00
2022-10-23T01:12:22.889Z,100556.00
2022-10-23T01:15:15.143Z,100562.00
2022-10-23T01:17:48.860Z,100549.00
2022-10-23T01:20:41.175Z,100547.00
2022-10-23T01:23:26.853Z,100544.00
2022-10-23T01:26:17.077Z,100544.00
2022-10-23T01:29:02.514Z,100540.00
2022-10-23T01:32:13.427Z,100538.00
2022-10-23T01:34:49.278Z,100535.00
2022-10-23T01:37:22.041Z,100532.00
2022-10-23T01:39:53.729Z,100529.00
2022-10-23T01:42:28.451Z,100529.00
2022-10-23T01:45:14.100Z,100531.00
2022-10-23T01:47:45.700Z,100527.00
2022-10-23T01:50:16.396Z,100530.00
2022-10-23T01:52:47.267Z,100524.00
2022-10-23T01:55:17.591Z,100528.00
2022-10-23T01:57:46.845Z,100530.00
2022-10-23T02:00:16.618Z,100526.00
2022-10-23T02:02:54.858Z,100526.00
2022-10-23T02:05:29.925Z,100519.00
2022-10-23T02:07:59.989Z,100521.00
2022-10-23T02:10:36.170Z,100513.00
2022-10-23T02:13:13.116Z,100513.00
2022-10-23T02:15:54.084Z,100505.00
2022-10-23T02:18:51.322Z,100512.00
2022-10-23T02:21:34.690Z,100506.00
2022-10-23T02:24:09.890Z,100495.00
2022-10-23T02:26:53.989Z,100490.00
2022-10-23T02:29:46.362Z,100496.00
2022-10-23T02:32:15.514Z,100491.00
2022-10-23T02:34:43.525Z,100491.00
2022-10-23T02:37:12.189Z,100485.00
2022-10-23T02:39:40.508Z,100490.00
2022-10-23T02:42:32.552Z,100491.00
2022-10-23T02:45:09.727Z,100494.00
2022-10-23T02:47:52.958Z,100493.00
2022-10-23T02:50:44.516Z,100491.00
2022-10-23T02:53:28.108Z,100488.00
2022-10-23T02:56:22.286Z,100483.00
2022-10-23T02:59:04.185Z,100484.00
2022-10-23T03:01:43.290Z,100488.00
2022-10-23T03:04:12.566Z,100480.00
2022-10-23T03:06:40.430Z,100485.00
2022-10-23T03:09:09.661Z,100485.00
2022-10-23T03:11:39.654Z,100480.00
2022-10-23T03:14:07.800Z,100476.00
2022-10-23T03:16:35.529Z,100476.00
2022-10-23T03:19:03.371Z,100476.00
2022-10-23T03:21:31.530Z,100476.00
2022-10-23T03:23:59.258Z,100480.00
2022-10-23T03:26:36.367Z,100474.00
2022-10-23T03:29:05.483Z,100471.00
2022-10-23T03:31:37.592Z,100469.00
2022-10-23T03:34:10.108Z,100477.00
2022-10-23T03:36:40.388Z,100476.00
2022-10-23T03:39:09.629Z,100475.00
2022-10-23T03:41:37.752Z,100464.00
2022-10-23T03:46:38.306Z,100473.00
2022-10-23T03:49:06.288Z,100458.00
2022-10-23T03:51:34.101Z,100460.00
2022-10-23T03:54:02.193Z,100458.00
2022-10-23T03:56:30.040Z,100454.00
2022-10-23T03:58:57.797Z,100449.00
2022-10-23T04:01:27.463Z,100443.00
2022-10-23T04:03:55.878Z,100438.00
2022-10-23T04:06:25.815Z,100435.00
2022-10-23T04:08:57.359Z,100439.00
2022-10-23T04:11:25.148Z,100453.00
2022-10-23T04:13:52.983Z,100448.00
2022-10-23T04:16:20.792Z,100450.00
2022-10-23T04:18:48.838Z,100453.00
2022-10-23T04:21:17.337Z,100447.00
2022-10-23T04:23:45.638Z,100450.00
2022-10-23T04:26:16.369Z,100449.00
2022-10-23T04:28:44.139Z,100457.00
2022-10-23T04:31:12.084Z,100460.00
2022-10-23T04:33:42.205Z,100453.00
2022-10-23T04:36:10.789Z,100451.00
2022-10-23T04:38:41.036Z,100446.00
2022-10-23T04:41:09.540Z,100451.00
2022-10-23T04:43:37.762Z,100451.00
2022-10-23T04:46:05.892Z,100456.00
2022-10-23T04:48:35.011Z,100449.00
2022-10-23T04:51:21.515Z,100453.00
2022-10-23T04:54:27.827Z,100436.00
2022-10-23T04:57:10.551Z,100438.00
2022-10-23T04:59:54.755Z,100437.00
2022-10-23T05:02:24.549Z,100439.00
2022-10-23T05:04:53.579Z,100437.00
2022-10-23T05:07:37.294Z,100441.00
2022-10-23T05:10:41.604Z,100441.00
2022-10-23T05:13:19.844Z,100435.00
2022-10-23T05:15:48.950Z,100435.00
2022-10-23T05:18:30.143Z,100433.00
2022-10-23T05:21:08.171Z,100441.00
2022-10-23T05:23:37.730Z,100444.00
2022-10-23T05:26:06.347Z,100443.00
2022-10-23T05:28:34.176Z,100445.00
2022-10-23T05:31:04.567Z,100443.00
2022-10-23T05:33:33.646Z,100432.00
2022-10-23T05:36:02.049Z,100435.00
2022-10-23T05:38:32.361Z,100435.00
2022-10-23T05:41:04.935Z,100426.00
2022-10-23T05:43:32.812Z,100422.00
2022-10-23T05:46:08.428Z,100425.00
2022-10-23T05:48:51.736Z,100424.00
2022-10-23T05:51:40.285Z,100412.00
2022-10-23T05:54:30.784Z,100422.00
2022-10-23T05:57:33.757Z,100424.00
2022-10-23T06:00:06.854Z,100431.00
2022-10-23T06:02:44.328Z,100428.00
2022-10-23T06:05:28.894Z,100420.00
2022-10-23T06:08:32.817Z,100422.00
2022-10-23T06:11:09.728Z,100423.00
2022-10-23T06:13:38.976Z,100416.00
2022-10-23T06:16:11.468Z,100414.00
2022-10-23T06:18:40.133Z,100415.00
2022-10-23T06:21:13.808Z,100406.00
2022-10-23T06:23:43.140Z,100410.00
2022-10-23T06:26:29.966Z,100397.00
2022-10-23T06:29:16.570Z,100407.00
2022-10-23T06:31:45.129Z,100413.00
2022-10-23T06:34:14.392Z,100415.00
2022-10-23T06:36:42.747Z,100416.00
2022-10-23T06:39:40.565Z,100417.00
2022-10-23T06:42:11.433Z,100426.00
2022-10-23T06:45:01.135Z,100425.00
2022-10-23T06:47:53.962Z,100422.00
2022-10-23T06:50:33.827Z,100424.00
2022-10-23T06:53:07.287Z,100429.00
2022-10-23T06:55:40.283Z,100407.00
2022-10-23T06:58:10.967Z,100418.00
2022-10-23T07:00:54.143Z,100425.00
2022-10-23T07:03:22.026Z,100428.00
2022-10-23T07:05:50.495Z,100424.00
2022-10-23T07:08:19.434Z,100422.00
2022-10-23T07:10:50.900Z,100418.00
2022-10-23T07:13:20.492Z,100410.00
2022-10-23T07:16:22.819Z,100393.00
2022-10-23T07:18:59.674Z,100405.00
2022-10-23T07:21:29.776Z,100405.00
2022-10-23T07:24:08.712Z,100402.00
2022-10-23T07:26:41.714Z,100413.00
2022-10-23T07:29:11.214Z,100402.00
2022-10-23T07:31:39.066Z,100412.00
2022-10-23T07:34:42.083Z,100401.00
2022-10-23T07:37:30.582Z,100403.00
2022-10-23T07:40:00.961Z,100394.00
2022-10-23T07:42:29.862Z,100395.00
2022-10-23T07:44:58.538Z,100394.00
2022-10-23T07:47:26.463Z,100381.00
2022-10-23T07:49:57.245Z,100381.00
2022-10-23T07:52:25.159Z,100378.00
2022-10-23T07:55:13.843Z,100379.00
2022-10-23T07:57:49.318Z,100380.00
2022-10-23T08:00:29.754Z,100377.00
2022-10-23T08:03:08.605Z,100381.00
2022-10-23T08:05:37.257Z,100387.00
2022-10-23T08:08:06.313Z,100393.00
2022-10-23T08:10:34.841Z,100390.00
2022-10-23T08:13:02.776Z,100395.00
2022-10-23T08:15:53.516Z,100392.00
2022-10-23T08:18:45.558Z,100381.00
2022-10-23T08:21:14.727Z,100378.00
2022-10-23T08:23:45.772Z,100380.00
2022-10-23T08:26:14.031Z,100375.00
2022-10-23T08:28:42.744Z,100376.00
2022-10-23T08:31:16.818Z,100374.00
2022-10-23T08:33:58.971Z,100374.00
2022-10-23T08:36:30.098Z,100363.00
2022-10-23T08:38:58.928Z,100364.00
2022-10-23T08:41:41.073Z,100376.00
2022-10-23T08:44:48.886Z,100362.00
2022-10-23T08:47:48.235Z,100359.00
2022-10-23T08:50:59.517Z,100368.00
2022-10-23T08:53:29.646Z,100359.00
2022-10-23T08:56:05.251Z,100351.00
2022-10-23T08:58:46.338Z,100357.00
2022-10-23T09:01:40.564Z,100345.00
2022-10-23T09:04:14.655Z,100350.00
2022-10-23T09:07:06.610Z,100351.00
2022-10-23T09:09:49.409Z,100350.00
2022-10-23T09:12:23.549Z,100349.00
2022-10-23T09:15:01.162Z,100341.00
2022-10-23T09:17:34.436Z,100345.00
2022-10-23T09:20:13.888Z,100341.00
2022-10-23T09:22:42.685Z,100345.00
2022-10-23T09:25:14.725Z,100338.00
2022-10-23T09:27:53.318Z,100342.00
2022-10-23T09:30:32.545Z,100343.00
2022-10-23T09:33:01.889Z,100354.00
2022-10-23T09:35:31.009Z,100346.00
2022-10-23T09:37:59.309Z,100342.00
2022-10-23T09:40:41.560Z,100343.00
2022-10-23T09:43:16.311Z,100349.00
2022-10-23T09:45:44.331Z,100341.00
2022-10-23T09:48:19.003Z,100344.00
2022-10-23T09:51:01.352Z,100348.00
2022-10-23T09:53:41.075Z,100341.00
2022-10-23T09:56:31.974Z,100335.00
2022-10-23T09:59:13.040Z,100335.00
2022-10-23T10:01:51.272Z,100343.00
2022-10-23T10:04:51.111Z,100337.00
2022-10-23T10:07:24.895Z,100345.00
2022-10-23T10:09:54.355Z,100347.00
2022-10-23T10:12:44.215Z,100347.00
2022-10-23T10:15:19.989Z,100340.00
2022-10-23T10:18:10.887Z,100346.00
2022-10-23T10:20:38.651Z,100341.00
2022-10-23T10:23:38.070Z,100337.00
2022-10-23T10:26:27.667Z,100326.00
2022-10-23T10:29:04.499Z,100313.00
2022-10-23T10:31:41.106Z,100317.00
2022-10-23T10:34:48.659Z,100304.00
2022-10-23T10:37:42.258Z,100313.00
2022-10-23T10:40:38.977Z,100308.00
2022-10-23T10:43:37.230Z,100303.00
2022-10-23T10:46:13.290Z,100295.00
2022-10-23T10:48:50.314Z,100291.00
2022-10-23T10:51:27.066Z,100292.00
2022-10-23T10:54:20.339Z,100286.00
2022-10-23T10:56:48.942Z,100289.00
2022-10-23T10:59:30.807Z,100287.00
2022-10-23T11:02:13.743Z,100285.00
2022-10-23T11:04:57.942Z,100269.00
2022-10-23T11:07:29.911Z,100272.00
2022-10-23T11:10:00.202Z,100273.00
2022-10-23T11:12:29.895Z,100282.00
2022-10-23T11:14:57.896Z,100270.00
2022-10-23T11:17:30.576Z,100263.00
2022-10-23T11:20:35.060Z,100252.00
2022-10-23T11:23:33.168Z,100258.00
2022-10-23T11:26:25.946Z,100255.00
2022-10-23T11:29:14.616Z,100253.00
2022-10-23T11:32:20.934Z,100248.00
2022-10-23T11:35:33.141Z,100245.00
2022-10-23T11:38:21.552Z,100230.00
2022-10-23T11:40:59.079Z,100232.00
2022-10-23T11:43:33.612Z,100232.00
2022-10-23T11:46:25.820Z,100227.00
2022-10-23T11:48:55.124Z,100227.00
2022-10-23T11:51:40.250Z,100223.00
2022-10-23T11:54:13.849Z,100217.00
2022-10-23T11:57:11.645Z,100202.00
2022-10-23T11:59:55.011Z,100211.00
2022-10-23T12:02:28.486Z,100204.00
2022-10-23T12:04:56.711Z,100201.00
2022-10-23T12:07:29.398Z,100197.00
2022-10-23T12:10:01.685Z,100192.00
2022-10-23T12:12:34.371Z,100189.00
2022-10-23T12:15:15.944Z,100193.00
2022-10-23T12:17:45.603Z,100184.00
2022-10-23T12:20:38.000Z,100175.00
2022-10-23T12:23:36.170Z,100167.00
2022-10-23T12:26:18.363Z,100167.00
2022-10-23T12:29:04.356Z,100158.00
2022-10-23T12:31:32.199Z,100158.00
2022-10-23T12:34:32.173Z,100166.00
2022-10-23T12:37:23.735Z,100161.00
2022-10-23T12:39:56.999Z,100160.00
2022-10-23T12:42:26.821Z,100157.00
2022-10-23T12:45:18.237Z,100147.00
2022-10-23T12:47:50.038Z,100135.00
2022-10-23T12:50:29.072Z,100127.00
2022-10-23T12:53:02.260Z,100121.00
2022-10-23T12:55:50.287Z,100120.00
2022-10-23T12:58:37.543Z,100117.00
2022-10-23T13:01:07.362Z,100111.00
2022-10-23T13:03:35.551Z,100113.00
2022-10-23T13:06:04.218Z,100111.00
2022-10-23T13:08:42.588Z,100111.00
2022-10-23T13:11:29.188Z,100109.00
2022-10-23T13:14:00.673Z,100098.00
2022-10-23T13:16:28.565Z,100098.00
2022-10-23T13:18:56.563Z,100096.00
2022-10-23T13:21:27.298Z,100095.00
2022-10-23T13:23:55.302Z,100088.00
2022-10-23T13:26:36.146Z,100088.00
2022-10-23T13:29:08.876Z,100078.00
2022-10-23T13:31:37.582Z,100075.00
2022-10-23T13:34:13.176Z,100073.00
2022-10-23T13:36:53.714Z,100064.00
2022-10-23T13:39:26.996Z,100068.00
2022-10-23T13:41:54.862Z,100060.00
2022-10-23T13:44:25.218Z,100053.00
2022-10-23T13:46:53.562Z,100045.00
2022-10-23T13:49:21.470Z,100046.00
2022-10-23T13:51:55.716Z,100045.00
2022-10-23T13:57:01.267Z,100048.00
2022-10-23T13:59:29.090Z,100053.00
2022-10-23T14:01:57.166Z,100046.00
2022-10-23T14:04:24.977Z,100049.00
2022-10-23T14:06:58.651Z,100047.00
2022-10-23T14:09:27.079Z,100049.00
2022-10-23T14:11:54.920Z,100046.00
2022-10-23T14:14:23.569Z,100041.00
2022-10-23T14:16:52.974Z,100036.00
2022-10-23T14:19:20.734Z,100032.00
2022-10-23T14:21:48.546Z,100026.00
2022-10-23T14:24:16.258Z,100033.00
2022-10-23T14:26:43.956Z,100024.00
2022-10-23T14:29:21.414Z,100017.00
2022-10-23T14:31:52.135Z,100018.00
2022-10-23T14:34:20.201Z,100021.00
2022-10-23T14:37:03.736Z,100015.00
2022-10-23T14:39:35.777Z,100011.00
2022-10-23T14:42:03.977Z,99999.00
2022-10-23T14:44:31.785Z,99979.00
2022-10-23T14:47:00.222Z,99965.00
2022-10-23T14:49:27.939Z,99977.00
2022-10-23T14:51:55.738Z,99976.00
2022-10-23T14:54:23.641Z,99966.00
2022-10-23T14:56:51.496Z,99979.00
2022-10-23T14:59:19.355Z,99973.00
2022-10-23T15:01:48.362Z,99967.00
2022-10-23T15:04:16.631Z,99974.00
2022-10-23T15:06:46.551Z,99969.00
2022-10-23T15:09:15.316Z,99952.00
2022-10-23T15:11:43.168Z,99957.00
2022-10-23T15:14:11.346Z,99952.00
2022-10-23T15:16:41.841Z,99959.00
2022-10-23T15:19:15.141Z,99959.00
2022-10-23T15:21:47.037Z,99941.00
2022-10-23T15:24:15.844Z,99941.00
2022-10-23T15:26:44.279Z,99934.00
2022-10-23T15:29:12.573Z,99929.00
2022-10-23T15:31:41.264Z,99929.00
2022-10-23T15:34:13.259Z,99927.00
2022-10-23T15:36:41.252Z,99921.00
2022-10-23T15:39:10.268Z,99920.00
2022-10-23T15:41:39.469Z,99916.00
2022-10-23T15:44:07.902Z,99904.00
2022-10-23T15:46:35.906Z,99906.00
2022-10-23T15:49:04.341Z,99906.00
2022-10-23T15:51:32.319Z,99896.00
2022-10-23T15:54:00.042Z,99895.00
2022-10-23T15:56:27.795Z,99895.00
2022-10-23T15:58:55.659Z,99880.00
2022-10-23T16:01:23.641Z,99875.00
2022-10-23T16:03:51.682Z,99888.00
2022-10-23T16:06:20.667Z,99886.00
2022-10-23T16:08:48.665Z,99877.00
2022-10-23T16:11:20.549Z,99861.00
2022-10-23T16:13:48.552Z,99873.00
2022-10-23T16:16:16.508Z,99877.00
2022-10-23T16:18:44.846Z,99871.00
2022-10-23T16:21:20.106Z,99875.00
2022-10-23T16:23:48.216Z,99873.00
2022-10-23T16:26:16.547Z,99869.00
2022-10-23T16:28:47.167Z,99866.00
2022-10-23T16:31:20.654Z,99855.00
2022-10-23T16:33:49.311Z,99858.00
2022-10-23T16:36:17.919Z,99852.00
2022-10-23T16:39:19.946Z,99857.00
2022-10-23T16:42:06.306Z,99841.00
2022-10-23T16:45:10.551Z,99830.00
2022-10-23T16:47:38.418Z,99813.00
2022-10-23T16:50:06.483Z,99794.00
2022-10-23T16:52:34.735Z,99798.00
2022-10-23T16:55:02.607Z,99785.00
2022-10-23T16:57:30.923Z,99773.00
2022-10-23T16:59:58.812Z,99755.00
2022-10-23T17:02:26.743Z,99765.00
2022-10-23T17:04:54.854Z,99769.00
2022-10-23T17:07:24.274Z,99769.00
2022-10-23T17:09:52.209Z,99772.00
2022-10-23T17:12:19.972Z,99779.00
2022-10-23T17:14:48.163Z,99788.00
2022-10-23T17:17:16.205Z,99782.00
2022-10-23T17:19:45.512Z,99774.00
2022-10-23T17:22:15.031Z,99770.00
2022-10-23T17:24:46.425Z,99777.00
2022-10-23T17:27:16.766Z,99784.00
2022-10-23T17:29:44.906Z,99782.00
2022-10-23T17:32:12.809Z,99787.00
2022-10-23T17:34:40.698Z,99794.00
2022-10-23T17:37:09.170Z,99789.00
2022-10-23T17:39:36.949Z,99790.00
2022-10-23T17:42:05.039Z,99793.00
2022-10-23T17:44:32.883Z,99777.00
2022-10-23T17:47:00.769Z,99779.00
2022-10-23T17:49:28.656Z,99781.00
2022-10-23T17:51:59.439Z,99766.00
2022-10-23T17:54:28.223Z,99771.00
2022-10-23T17:56:56.714Z,99776.00
2022-10-23T17:59:24.901Z,99770.00
2022-10-23T18:01:53.628Z,99781.00
2022-10-23T18:04:22.161Z,99786.00
2022-10-23T18:06:53.049Z,99787.00
2022-10-23T18:09:21.818Z,99789.00
2022-10-23T18:11:50.212Z,99783.00
2022-10-23T18:14:19.516Z,99788.00
2022-10-23T18:16:47.476Z,99785.00
2022-10-23T18:19:18.374Z,99782.00
2022-10-23T18:21:47.105Z,99784.00
2022-10-23T18:24:15.244Z,99788.00
2022-10-23T18:26:43.630Z,99790.00
2022-10-23T18:29:12.675Z,99794.00
2022-10-23T18:31:41.416Z,99788.00
2022-10-23T18:34:31.056Z,99788.00
2022-10-23T18:37:00.751Z,99783.00
2022-10-23T18:39:28.912Z,99782.00
2022-10-23T18:41:58.410Z,99786.00
2022-10-23T18:44:29.255Z,99787.00
2022-10-23T18:47:01.979Z,99790.00
2022-10-23T18:49:29.982Z,99787.00
2022-10-23T18:51:58.787Z,99803.00
2022-10-23T18:54:26.695Z,99809.00
2022-10-23T18:56:54.710Z,99819.00
2022-10-23T18:59:22.739Z,99810.00
2022-10-23T19:01:51.310Z,99829.00
2022-10-23T19:04:19.696Z,99830.00
2022-10-23T19:06:48.735Z,99846.00
2022-10-23T19:09:17.056Z,99848.00
2022-10-23T19:11:45.680Z,99839.00
2022-10-23T19:14:13.972Z,99839.00
2022-10-23T19:16:47.074Z,99847.00
2022-10-23T19:19:27.485Z,99843.00
2022-10-23T19:21:55.822Z,99843.00
2022-10-23T19:24:32.520Z,99839.00
2022-10-23T19:27:01.846Z,99854.00
2022-10-23T19:29:30.310Z,99849.00
2022-10-23T19:31:58.164Z,99843.00
2022-10-23T19:34:26.485Z,99847.00
2022-10-23T19:36:55.231Z,99845.00
2022-10-23T19:39:25.429Z,99855.00
2022-10-23T19:41:54.163Z,99858.00
2022-10-23T19:44:22.390Z,99849.00
2022-10-23T19:46:50.460Z,99864.00
2022-10-23T19:49:19.001Z,99864.00
2022-10-23T19:51:51.036Z,99873.00
2022-10-23T19:54:20.788Z,99867.00
2022-10-23T19:56:49.425Z,99865.00
2022-10-23T19:59:17.475Z,99860.00
2022-10-23T20:01:48.067Z,99862.00
2022-10-23T20:04:18.524Z,99863.00
2022-10-23T20:06:47.168Z,99872.00
2022-10-23T20:09:15.160Z,99868.00
2022-10-23T20:11:44.034Z,99874.00
2022-10-23T20:14:12.107Z,99872.00
2022-10-23T20:16:40.287Z,99882.00
2022-10-23T20:19:11.073Z,99886.00
2022-10-23T20:21:41.593Z,99881.00
2022-10-23T20:24:10.793Z,99882.00
2022-10-23T20:26:46.523Z,99879.00
2022-10-23T20:29:14.886Z,99882.00
2022-10-23T20:31:43.692Z,99888.00
2022-10-23T20:34:12.399Z,99884.00
2022-10-23T20:36:45.550Z,99880.00
2022-10-23T20:39:22.191Z,99876.00
2022-10-23T20:41:50.145Z,99879.00
2022-10-23T20:44:19.008Z,99883.00
2022-10-23T20:46:47.011Z,99877.00
2022-10-23T20:49:15.157Z,99880.00
2022-10-23T20:51:43.253Z,99878.00
2022-10-23T20:54:11.116Z,99888.00
2022-10-23T20:56:39.866Z,99887.00
2022-10-23T20:59:13.617Z,99888.00
2022-10-23T21:01:44.520Z,99879.00
2022-10-23T21:04:13.744Z,99862.00
2022-10-23T21:06:57.778Z,99836.00
2022-10-23T21:09:31.433Z,99799.00
2022-10-23T21:11:59.258Z,99797.00
2022-10-23T21:14:27.481Z,99790.00
2022-10-23T21:16:55.251Z,99774.00
2022-10-23T21:19:23.078Z,99759.00
2022-10-23T21:21:54.383Z,99764.00
2022-10-23T21:24:22.131Z,99776.00
2022-10-23T21:26:49.942Z,99780.00
2022-10-23T21:29:19.332Z,99766.00
2022-10-23T21:31:55.538Z,99769.00
2022-10-23T21:34:25.101Z,99768.00
2022-10-23T21:37:12.017Z,99768.00
2022-10-23T21:39:41.740Z,99766.00
2022-10-23T21:42:10.165Z,99770.00
2022-10-23T21:44:38.235Z,99778.00
2022-10-23T21:47:06.174Z,99773.00
2022-10-23T21:49:34.020Z,99780.00
2022-10-23T21:52:01.838Z,99785.00
2022-10-23T21:54:29.625Z,99781.00
2022-10-23T21:56:57.430Z,99777.00
2022-10-23T21:59:30.008Z,99770.00
2022-10-23T22:01:59.830Z,99764.00
2022-10-23T22:04:28.125Z,99776.00
2022-10-23T22:06:56.291Z,99787.00
2022-10-23T22:09:24.483Z,99787.00
2022-10-23T22:11:55.885Z,99779.00
2022-10-23T22:14:23.696Z,99767.00
2022-10-23T22:16:52.562Z,99770.00
2022-10-23T22:19:22.037Z,99765.00
2022-10-23T22:21:51.011Z,99771.00
2022-10-23T22:24:19.230Z,99771.00
2022-10-23T22:26:49.875Z,99777.00
2022-10-23T22:29:25.047Z,99768.00
2022-10-23T22:31:53.533Z,99763.00
2022-10-23T22:34:48.230Z,99745.00
2022-10-23T22:37:14.603Z,99731.00
2022-10-23T22:39:42.702Z,99738.00
2022-10-23T22:42:10.672Z,99729.00
2022-10-23T22:44:38.526Z,99736.00
2022-10-23T22:47:06.572Z,99740.00
2022-10-23T22:49:34.348Z,99759.00
2022-10-23T22:52:02.233Z,99766.00
2022-10-23T22:54:31.511Z,99769.00
2022-10-23T22:56:59.791Z,99770.00
2022-10-23T22:59:27.618Z,99774.00
2022-10-23T23:01:55.789Z,99788.00
2022-10-23T23:04:37.364Z,99791.00
2022-10-23T23:07:07.562Z,99788.00
2022-10-23T23:09:38.044Z,99788.00
2022-10-23T23:12:06.871Z,99790.00
2022-10-23T23:14:34.717Z,99802.00
2022-10-23T23:17:02.693Z,99801.00
2022-10-23T23:19:30.530Z,99798.00
2022-10-23T23:21:59.521Z,99805.00
2022-10-23T23:24:27.856Z,99805.00
2022-10-23T23:26:55.736Z,99818.00
2022-10-23T23:29:23.642Z,99802.00
2022-10-23T23:31:51.444Z,99792.00
2022-10-23T23:34:19.281Z,99802.00
2022-10-23T23:36:47.729Z,99788.00
2022-10-23T23:39:15.609Z,99797.00
2022-10-23T23:41:43.485Z,99801.00
2022-10-23T23:44:11.354Z,99818.00
2022-10-23T23:46:39.114Z,99821.00
2022-10-23T23:49:07.016Z,99812.00
2022-10-23T23:51:35.498Z,99804.00
2022-10-23T23:54:03.502Z,99798.00
2022-10-23T23:56:32.217Z,99802.00
2022-10-23T23:59:00.328Z,99800.00
